createdAt,value
2018-09-26T23:05:58.309Z,5.42
2018-09-26T23:07:03.813Z,4.17
2018-09-26T23:08:09.234Z,5.35
2018-09-26T23:09:13.651Z,4.12
2018-09-26T23:10:20.628Z,4.28
2018-09-26T23:11:25.119Z,4.30
2018-09-26T23:12:31.844Z,4.80
2018-09-26T23:13:37.990Z,4.12
2018-09-26T23:14:42.467Z,4.05
2018-09-26T23:15:46.965Z,4.10
2018-09-26T23:16:51.402Z,4.35
2018-09-26T23:17:56.715Z,4.25
2018-09-26T23:19:01.589Z,5.28
2018-09-26T23:20:07.172Z,4.47
2018-09-26T23:21:12.239Z,4.28
2018-09-26T23:22:21.278Z,3.40
2018-09-26T23:23:25.733Z,4.28
2018-09-26T23:24:30.198Z,4.40
2018-09-26T23:25:34.634Z,4.10
2018-09-26T23:26:39.083Z,4.35
2018-09-26T23:27:44.282Z,6.30
2018-09-26T23:28:49.564Z,3.33
2018-09-26T23:29:53.964Z,5.12
2018-09-26T23:30:58.464Z,8.60
2018-09-26T23:32:02.949Z,7.22
2018-09-26T23:33:07.497Z,8.25
2018-09-26T23:34:12.075Z,8.10
2018-09-26T23:35:16.697Z,6.50
2018-09-26T23:36:21.410Z,6.30
2018-09-26T23:37:25.964Z,7.78
2018-09-26T23:38:30.345Z,6.80
2018-09-26T23:39:34.873Z,5.53
2018-09-26T23:40:39.597Z,5.80
2018-09-26T23:41:44.080Z,4.87
2018-09-26T23:42:48.615Z,5.47
2018-09-26T23:43:53.117Z,6.50
2018-09-26T23:44:57.633Z,6.78
2018-09-26T23:46:02.038Z,5.30
2018-09-26T23:47:08.235Z,7.75
2018-09-26T23:48:13.596Z,6.58
2018-09-26T23:49:18.200Z,6.65
2018-09-26T23:50:22.679Z,6.50
2018-09-26T23:51:27.535Z,5.72
2018-09-26T23:52:31.964Z,5.60
2018-09-26T23:53:39.035Z,5.10
2018-09-26T23:54:44.223Z,5.90
2018-09-26T23:55:49.363Z,5.37
2018-09-26T23:56:53.809Z,5.83
2018-09-26T23:57:58.241Z,6.65
2018-09-26T23:59:04.118Z,7.58
